sensor_id;sensor_type;location;lat;lon;timestamp;pressure;altitude;pressure_sealevel;temperature;humidity
72118;BME280;59992;47.490;8.736;2022-08-21T00:00:52;96814.15;;;15.37;92.97
72118;BME280;59992;47.490;8.736;2022-08-21T00:03:44;96812.64;;;15.33;91.78
72118;BME280;59992;47.490;8.736;2022-08-21T00:06:35;96804.80;;;15.29;92.53
72118;BME280;59992;47.490;8.736;2022-08-21T00:09:26;96807.23;;;15.26;93.11
72118;BME280;59992;47.490;8.736;2022-08-21T00:12:18;96803.35;;;15.22;93.59
72118;BME280;59992;47.490;8.736;2022-08-21T00:15:11;96802.73;;;15.20;93.75
72118;BME280;59992;47.490;8.736;2022-08-21T00:18:03;96798.31;;;15.18;93.28
72118;BME280;59992;47.490;8.736;2022-08-21T00:20:54;96797.77;;;15.18;91.98
72118;BME280;59992;47.490;8.736;2022-08-21T00:23:45;96798.92;;;15.17;91.97
72118;BME280;59992;47.490;8.736;2022-08-21T00:26:35;96800.30;;;15.13;93.23
72118;BME280;59992;47.490;8.736;2022-08-21T00:29:26;96800.00;;;15.10;92.30
72118;BME280;59992;47.490;8.736;2022-08-21T00:32:22;96801.39;;;15.03;92.15
72118;BME280;59992;47.490;8.736;2022-08-21T00:35:17;96804.96;;;14.96;93.49
72118;BME280;59992;47.490;8.736;2022-08-21T00:38:09;96806.50;;;14.94;93.70
72118;BME280;59992;47.490;8.736;2022-08-21T00:41:02;96803.36;;;14.94;94.05
72118;BME280;59992;47.490;8.736;2022-08-21T00:43:54;96802.61;;;14.97;95.02
72118;BME280;59992;47.490;8.736;2022-08-21T00:46:45;96803.22;;;14.99;94.09
72118;BME280;59992;47.490;8.736;2022-08-21T00:49:36;96803.44;;;15.00;94.39
72118;BME280;59992;47.490;8.736;2022-08-21T00:52:29;96797.66;;;14.99;94.17
72118;BME280;59992;47.490;8.736;2022-08-21T00:55:27;96798.94;;;15.03;93.63
72118;BME280;59992;47.490;8.736;2022-08-21T00:58:27;96797.80;;;15.04;92.61
72118;BME280;59992;47.490;8.736;2022-08-21T01:01:20;96799.55;;;15.06;94.48
72118;BME280;59992;47.490;8.736;2022-08-21T01:04:12;96799.31;;;15.09;94.62
72118;BME280;59992;47.490;8.736;2022-08-21T01:07:05;96795.65;;;15.11;93.87
72118;BME280;59992;47.490;8.736;2022-08-21T01:09:56;96794.89;;;15.13;94.05
72118;BME280;59992;47.490;8.736;2022-08-21T01:12:47;96794.05;;;15.15;93.67
72118;BME280;59992;47.490;8.736;2022-08-21T01:15:42;96791.69;;;15.16;93.63
72118;BME280;59992;47.490;8.736;2022-08-21T01:18:33;96790.85;;;15.17;93.26
72118;BME280;59992;47.490;8.736;2022-08-21T01:21:26;96787.73;;;15.19;92.67
72118;BME280;59992;47.490;8.736;2022-08-21T01:24:17;96784.36;;;15.20;92.43
72118;BME280;59992;47.490;8.736;2022-08-21T01:27:08;96788.55;;;15.18;93.45
72118;BME280;59992;47.490;8.736;2022-08-21T01:30:03;96790.91;;;15.16;93.47
72118;BME280;59992;47.490;8.736;2022-08-21T01:32:55;96794.04;;;15.16;94.86
72118;BME280;59992;47.490;8.736;2022-08-21T01:35:46;96790.92;;;15.18;94.36
72118;BME280;59992;47.490;8.736;2022-08-21T01:38:36;96780.93;;;15.17;93.35
72118;BME280;59992;47.490;8.736;2022-08-21T01:41:30;96772.98;;;15.16;92.52
72118;BME280;59992;47.490;8.736;2022-08-21T01:44:23;96767.12;;;15.14;92.20
72118;BME280;59992;47.490;8.736;2022-08-21T01:47:14;96767.05;;;15.12;92.11
72118;BME280;59992;47.490;8.736;2022-08-21T01:50:10;96766.35;;;15.09;91.65
72118;BME280;59992;47.490;8.736;2022-08-21T01:53:00;96759.67;;;15.05;91.68
72118;BME280;59992;47.490;8.736;2022-08-21T01:55:51;96754.02;;;15.01;91.70
72118;BME280;59992;47.490;8.736;2022-08-21T01:58:46;96751.65;;;14.98;91.52
72118;BME280;59992;47.490;8.736;2022-08-21T02:01:37;96749.83;;;14.94;92.69
72118;BME280;59992;47.490;8.736;2022-08-21T02:04:28;96746.70;;;14.88;92.69
72118;BME280;59992;47.490;8.736;2022-08-21T02:07:19;96740.38;;;14.82;92.92
72118;BME280;59992;47.490;8.736;2022-08-21T02:10:12;96738.72;;;14.76;92.97
72118;BME280;59992;47.490;8.736;2022-08-21T02:13:03;96734.60;;;14.74;93.32
72118;BME280;59992;47.490;8.736;2022-08-21T02:15:53;96738.79;;;14.71;92.28
72118;BME280;59992;47.490;8.736;2022-08-21T02:18:45;96740.23;;;14.68;92.74
72118;BME280;59992;47.490;8.736;2022-08-21T02:21:35;96737.27;;;14.62;93.17
72118;BME280;59992;47.490;8.736;2022-08-21T02:24:26;96737.27;;;14.56;93.55
72118;BME280;59992;47.490;8.736;2022-08-21T02:27:17;96734.52;;;14.53;94.00
72118;BME280;59992;47.490;8.736;2022-08-21T02:30:10;96737.73;;;14.51;94.09
72118;BME280;59992;47.490;8.736;2022-08-21T02:33:02;96736.43;;;14.50;93.74
72118;BME280;59992;47.490;8.736;2022-08-21T02:35:53;96736.50;;;14.49;92.94
72118;BME280;59992;47.490;8.736;2022-08-21T02:38:44;96735.80;;;14.48;92.36
72118;BME280;59992;47.490;8.736;2022-08-21T02:41:35;96730.02;;;14.46;93.11
72118;BME280;59992;47.490;8.736;2022-08-21T02:44:26;96728.80;;;14.43;94.19
72118;BME280;59992;47.490;8.736;2022-08-21T02:47:18;96730.63;;;14.41;94.00
72118;BME280;59992;47.490;8.736;2022-08-21T02:50:09;96728.27;;;14.42;94.70
72118;BME280;59992;47.490;8.736;2022-08-21T02:53:00;96731.00;;;14.45;94.74
72118;BME280;59992;47.490;8.736;2022-08-21T02:55:51;96732.84;;;14.48;94.65
72118;BME280;59992;47.490;8.736;2022-08-21T02:58:46;96731.48;;;14.51;93.96
72118;BME280;59992;47.490;8.736;2022-08-21T03:01:38;96730.25;;;14.51;93.61
72118;BME280;59992;47.490;8.736;2022-08-21T03:04:28;96734.82;;;14.50;94.12
72118;BME280;59992;47.490;8.736;2022-08-21T03:07:19;96733.30;;;14.47;93.85
72118;BME280;59992;47.490;8.736;2022-08-21T03:10:10;96733.69;;;14.49;94.33
72118;BME280;59992;47.490;8.736;2022-08-21T03:13:01;96729.71;;;14.48;93.18
72118;BME280;59992;47.490;8.736;2022-08-21T03:15:52;96727.44;;;14.45;93.21
72118;BME280;59992;47.490;8.736;2022-08-21T03:18:43;96727.04;;;14.40;92.87
72118;BME280;59992;47.490;8.736;2022-08-21T03:21:33;96724.99;;;14.37;92.38
72118;BME280;59992;47.490;8.736;2022-08-21T03:24:24;96728.80;;;14.33;92.91
72118;BME280;59992;47.490;8.736;2022-08-21T03:27:15;96732.66;;;14.27;93.18
72118;BME280;59992;47.490;8.736;2022-08-21T03:30:08;96734.33;;;14.24;93.27
72118;BME280;59992;47.490;8.736;2022-08-21T03:32:59;96730.65;;;14.21;93.83
72118;BME280;59992;47.490;8.736;2022-08-21T03:35:57;96732.17;;;14.20;93.71
72118;BME280;59992;47.490;8.736;2022-08-21T03:38:50;96734.45;;;14.19;93.61
72118;BME280;59992;47.490;8.736;2022-08-21T03:41:41;96739.41;;;14.20;94.59
72118;BME280;59992;47.490;8.736;2022-08-21T03:44:32;96740.17;;;14.20;94.15
72118;BME280;59992;47.490;8.736;2022-08-21T03:47:23;96741.77;;;14.21;94.13
72118;BME280;59992;47.490;8.736;2022-08-21T03:50:16;96740.95;;;14.22;94.68
72118;BME280;59992;47.490;8.736;2022-08-21T03:53:08;96739.14;;;14.26;95.62
72118;BME280;59992;47.490;8.736;2022-08-21T03:56:01;96735.43;;;14.31;95.02
72118;BME280;59992;47.490;8.736;2022-08-21T03:58:52;96741.13;;;14.37;94.76
72118;BME280;59992;47.490;8.736;2022-08-21T04:01:53;96739.48;;;14.41;94.44
72118;BME280;59992;47.490;8.736;2022-08-21T04:04:44;96738.94;;;14.50;93.52
72118;BME280;59992;47.490;8.736;2022-08-21T04:07:35;96742.15;;;14.57;93.81
72118;BME280;59992;47.490;8.736;2022-08-21T04:10:28;96741.00;;;14.61;93.72
72118;BME280;59992;47.490;8.736;2022-08-21T04:13:19;96742.60;;;14.64;94.58
72118;BME280;59992;47.490;8.736;2022-08-21T04:16:10;96742.61;;;14.69;94.33
72118;BME280;59992;47.490;8.736;2022-08-21T04:19:01;96743.73;;;14.74;95.25
72118;BME280;59992;47.490;8.736;2022-08-21T04:21:52;96743.45;;;14.80;95.03
72118;BME280;59992;47.490;8.736;2022-08-21T04:24:43;96745.42;;;14.86;95.95
72118;BME280;59992;47.490;8.736;2022-08-21T04:27:34;96744.04;;;14.93;95.92
72118;BME280;59992;47.490;8.736;2022-08-21T04:30:25;96739.75;;;14.98;95.56
72118;BME280;59992;47.490;8.736;2022-08-21T04:33:16;96742.20;;;15.02;94.23
72118;BME280;59992;47.490;8.736;2022-08-21T04:36:07;96741.35;;;15.03;93.26
72118;BME280;59992;47.490;8.736;2022-08-21T04:38:58;96749.05;;;15.01;92.73
72118;BME280;59992;47.490;8.736;2022-08-21T04:41:49;96756.84;;;14.99;92.59
72118;BME280;59992;47.490;8.736;2022-08-21T04:44:39;96761.73;;;15.03;92.60
72118;BME280;59992;47.490;8.736;2022-08-21T04:47:31;96757.96;;;15.08;92.87
72118;BME280;59992;47.490;8.736;2022-08-21T04:50:24;96757.42;;;15.15;92.42
72118;BME280;59992;47.490;8.736;2022-08-21T04:53:19;96757.56;;;15.23;92.23
72118;BME280;59992;47.490;8.736;2022-08-21T04:56:13;96757.16;;;15.30;92.25
72118;BME280;59992;47.490;8.736;2022-08-21T04:59:10;96759.06;;;15.35;91.50
72118;BME280;59992;47.490;8.736;2022-08-21T05:02:03;96764.25;;;15.36;91.27
72118;BME280;59992;47.490;8.736;2022-08-21T05:04:55;96761.58;;;15.37;91.31
72118;BME280;59992;47.490;8.736;2022-08-21T05:07:46;96759.66;;;15.39;91.56
72118;BME280;59992;47.490;8.736;2022-08-21T05:10:37;96756.25;;;15.43;91.27
72118;BME280;59992;47.490;8.736;2022-08-21T05:13:28;96753.78;;;15.47;91.24
72118;BME280;59992;47.490;8.736;2022-08-21T05:16:19;96752.04;;;15.48;91.32
72118;BME280;59992;47.490;8.736;2022-08-21T05:19:11;96753.63;;;15.51;91.54
72118;BME280;59992;47.490;8.736;2022-08-21T05:22:02;96756.89;;;15.56;92.19
72118;BME280;59992;47.490;8.736;2022-08-21T05:24:53;96757.39;;;15.64;92.10
72118;BME280;59992;47.490;8.736;2022-08-21T05:27:44;96763.86;;;15.72;93.02
72118;BME280;59992;47.490;8.736;2022-08-21T05:30:35;96768.34;;;15.79;92.77
72118;BME280;59992;47.490;8.736;2022-08-21T05:33:26;96771.75;;;15.86;91.62
72118;BME280;59992;47.490;8.736;2022-08-21T05:36:17;96771.49;;;15.91;91.29
72118;BME280;59992;47.490;8.736;2022-08-21T05:39:09;96773.14;;;15.97;90.99
72118;BME280;59992;47.490;8.736;2022-08-21T05:42:00;96768.98;;;16.04;90.99
72118;BME280;59992;47.490;8.736;2022-08-21T05:44:50;96771.64;;;16.07;91.24
72118;BME280;59992;47.490;8.736;2022-08-21T05:47:41;96774.37;;;16.11;91.74
72118;BME280;59992;47.490;8.736;2022-08-21T05:50:32;96770.06;;;16.13;91.61
72118;BME280;59992;47.490;8.736;2022-08-21T05:53:24;96771.43;;;16.17;91.28
72118;BME280;59992;47.490;8.736;2022-08-21T05:56:15;96772.89;;;16.17;91.05
72118;BME280;59992;47.490;8.736;2022-08-21T05:59:06;96773.80;;;16.17;91.64
72118;BME280;59992;47.490;8.736;2022-08-21T06:01:57;96771.56;;;16.20;91.51
72118;BME280;59992;47.490;8.736;2022-08-21T06:04:47;96773.47;;;16.21;91.33
72118;BME280;59992;47.490;8.736;2022-08-21T06:07:39;96772.77;;;16.25;91.63
72118;BME280;59992;47.490;8.736;2022-08-21T06:10:29;96776.31;;;16.32;92.26
72118;BME280;59992;47.490;8.736;2022-08-21T06:13:21;96770.17;;;16.36;92.44
72118;BME280;59992;47.490;8.736;2022-08-21T06:16:14;96776.77;;;16.45;91.69
72118;BME280;59992;47.490;8.736;2022-08-21T06:19:06;96774.07;;;16.52;92.25
72118;BME280;59992;47.490;8.736;2022-08-21T06:21:56;96767.91;;;16.59;90.55
72118;BME280;59992;47.490;8.736;2022-08-21T06:24:47;96770.70;;;16.63;90.59
72118;BME280;59992;47.490;8.736;2022-08-21T06:27:37;96770.07;;;16.67;90.22
72118;BME280;59992;47.490;8.736;2022-08-21T06:30:28;96769.57;;;16.72;90.04
72118;BME280;59992;47.490;8.736;2022-08-21T06:33:20;96768.77;;;16.77;89.82
72118;BME280;59992;47.490;8.736;2022-08-21T06:36:10;96766.46;;;16.77;89.70
72118;BME280;59992;47.490;8.736;2022-08-21T06:39:01;96770.45;;;16.87;89.38
72118;BME280;59992;47.490;8.736;2022-08-21T06:41:52;96773.71;;;16.98;89.54
72118;BME280;59992;47.490;8.736;2022-08-21T06:44:44;96773.45;;;17.09;89.29
72118;BME280;59992;47.490;8.736;2022-08-21T06:47:35;96775.04;;;17.21;89.09
72118;BME280;59992;47.490;8.736;2022-08-21T06:50:25;96774.29;;;17.33;88.46
72118;BME280;59992;47.490;8.736;2022-08-21T06:53:19;96772.55;;;17.47;87.76
72118;BME280;59992;47.490;8.736;2022-08-21T06:56:10;96767.33;;;17.57;86.33
72118;BME280;59992;47.490;8.736;2022-08-21T06:59:01;96773.73;;;17.74;86.29
72118;BME280;59992;47.490;8.736;2022-08-21T07:01:52;96773.49;;;17.87;86.36
72118;BME280;59992;47.490;8.736;2022-08-21T07:04:42;96772.09;;;18.00;84.83
72118;BME280;59992;47.490;8.736;2022-08-21T07:07:33;96766.65;;;18.18;85.05
72118;BME280;59992;47.490;8.736;2022-08-21T07:10:24;96767.85;;;18.37;84.76
72118;BME280;59992;47.490;8.736;2022-08-21T07:13:15;96770.63;;;18.42;83.47
72118;BME280;59992;47.490;8.736;2022-08-21T07:16:06;96772.77;;;18.55;83.77
72118;BME280;59992;47.490;8.736;2022-08-21T07:18:57;96777.45;;;18.73;82.68
72118;BME280;59992;47.490;8.736;2022-08-21T07:21:47;96781.48;;;18.94;82.55
72118;BME280;59992;47.490;8.736;2022-08-21T07:24:38;96778.64;;;19.09;79.34
72118;BME280;59992;47.490;8.736;2022-08-21T07:27:29;96777.14;;;19.30;79.35
72118;BME280;59992;47.490;8.736;2022-08-21T07:30:20;96777.52;;;19.55;79.34
72118;BME280;59992;47.490;8.736;2022-08-21T07:33:11;96778.69;;;19.74;76.95
72118;BME280;59992;47.490;8.736;2022-08-21T07:36:02;96772.38;;;20.09;75.64
72118;BME280;59992;47.490;8.736;2022-08-21T07:38:53;96763.86;;;20.30;75.32
72118;BME280;59992;47.490;8.736;2022-08-21T07:41:44;96763.02;;;20.61;74.81
72118;BME280;59992;47.490;8.736;2022-08-21T07:44:35;96764.34;;;21.24;72.30
72118;BME280;59992;47.490;8.736;2022-08-21T07:47:26;96759.27;;;21.86;70.37
72118;BME280;59992;47.490;8.736;2022-08-21T07:50:17;96762.41;;;22.48;67.00
72118;BME280;59992;47.490;8.736;2022-08-21T07:53:08;96754.67;;;22.93;64.50
72118;BME280;59992;47.490;8.736;2022-08-21T07:56:00;96762.75;;;23.60;62.85
72118;BME280;59992;47.490;8.736;2022-08-21T07:58:52;96763.94;;;24.15;62.88
72118;BME280;59992;47.490;8.736;2022-08-21T08:01:44;96765.43;;;24.67;65.18
72118;BME280;59992;47.490;8.736;2022-08-21T08:04:36;96760.14;;;24.87;58.51
72118;BME280;59992;47.490;8.736;2022-08-21T08:07:27;96760.23;;;25.36;56.55
72118;BME280;59992;47.490;8.736;2022-08-21T08:10:27;96754.02;;;25.51;56.51
72118;BME280;59992;47.490;8.736;2022-08-21T08:13:17;96748.41;;;25.72;56.19
72118;BME280;59992;47.490;8.736;2022-08-21T08:16:08;96756.73;;;26.07;55.50
72118;BME280;59992;47.490;8.736;2022-08-21T08:18:59;96755.33;;;26.25;54.26
72118;BME280;59992;47.490;8.736;2022-08-21T08:21:49;96749.61;;;26.64;52.57
72118;BME280;59992;47.490;8.736;2022-08-21T08:24:42;96751.85;;;26.79;50.16
72118;BME280;59992;47.490;8.736;2022-08-21T08:27:33;96750.97;;;27.13;51.90
72118;BME280;59992;47.490;8.736;2022-08-21T08:30:24;96750.40;;;27.37;51.74
72118;BME280;59992;47.490;8.736;2022-08-21T08:33:16;96747.48;;;27.00;51.62
72118;BME280;59992;47.490;8.736;2022-08-21T08:36:14;96749.80;;;27.47;52.82
72118;BME280;59992;47.490;8.736;2022-08-21T08:39:06;96744.85;;;27.52;50.45
72118;BME280;59992;47.490;8.736;2022-08-21T08:42:02;96746.45;;;27.67;51.17
72118;BME280;59992;47.490;8.736;2022-08-21T08:44:59;96742.67;;;27.23;49.87
72118;BME280;59992;47.490;8.736;2022-08-21T08:47:53;96740.52;;;26.98;52.30
72118;BME280;59992;47.490;8.736;2022-08-21T08:50:52;96734.01;;;26.54;52.19
72118;BME280;59992;47.490;8.736;2022-08-21T08:53:52;96731.23;;;25.96;54.29
72118;BME280;59992;47.490;8.736;2022-08-21T08:56:45;96733.55;;;26.08;52.35
72118;BME280;59992;47.490;8.736;2022-08-21T08:59:40;96730.08;;;26.23;51.29
72118;BME280;59992;47.490;8.736;2022-08-21T09:02:35;96729.45;;;26.10;51.95
72118;BME280;59992;47.490;8.736;2022-08-21T09:05:33;96727.02;;;26.05;51.89
72118;BME280;59992;47.490;8.736;2022-08-21T09:08:48;96723.42;;;26.07;51.89
72118;BME280;59992;47.490;8.736;2022-08-21T09:11:48;96716.93;;;25.97;51.86
72118;BME280;59992;47.490;8.736;2022-08-21T09:15:02;96716.64;;;26.13;52.85
72118;BME280;59992;47.490;8.736;2022-08-21T09:18:23;96713.17;;;26.14;51.39
72118;BME280;59992;47.490;8.736;2022-08-21T09:21:23;96710.30;;;26.14;52.02
72118;BME280;59992;47.490;8.736;2022-08-21T09:24:37;96710.51;;;26.40;52.02
72118;BME280;59992;47.490;8.736;2022-08-21T09:27:31;96708.71;;;26.52;50.44
72118;BME280;59992;47.490;8.736;2022-08-21T09:30:27;96708.48;;;26.67;50.66
72118;BME280;59992;47.490;8.736;2022-08-21T09:33:18;96706.36;;;26.58;50.47
72118;BME280;59992;47.490;8.736;2022-08-21T09:36:09;96699.27;;;26.28;49.78
72118;BME280;59992;47.490;8.736;2022-08-21T09:39:00;96696.66;;;25.80;52.99
72118;BME280;59992;47.490;8.736;2022-08-21T09:41:57;96693.68;;;25.63;52.16
72118;BME280;59992;47.490;8.736;2022-08-21T09:44:48;96687.73;;;25.35;51.65
72118;BME280;59992;47.490;8.736;2022-08-21T09:47:38;96684.48;;;25.21;53.52
72118;BME280;59992;47.490;8.736;2022-08-21T09:50:29;96684.45;;;25.01;52.53
72118;BME280;59992;47.490;8.736;2022-08-21T09:53:25;96684.89;;;24.84;53.31
72118;BME280;59992;47.490;8.736;2022-08-21T09:56:33;96682.77;;;24.65;53.58
72118;BME280;59992;47.490;8.736;2022-08-21T09:59:47;96672.91;;;24.51;54.63
72118;BME280;59992;47.490;8.736;2022-08-21T10:02:38;96669.42;;;24.45;53.07
72118;BME280;59992;47.490;8.736;2022-08-21T10:05:28;96667.06;;;24.36;52.76
72118;BME280;59992;47.490;8.736;2022-08-21T10:08:20;96663.52;;;24.24;53.46
72118;BME280;59992;47.490;8.736;2022-08-21T10:11:14;96665.88;;;24.15;53.69
72118;BME280;59992;47.490;8.736;2022-08-21T10:14:14;96641.91;;;23.92;53.94
72118;BME280;59992;47.490;8.736;2022-08-21T10:17:15;96658.36;;;23.99;54.53
72118;BME280;59992;47.490;8.736;2022-08-21T10:20:11;96658.02;;;23.96;54.67
72118;BME280;59992;47.490;8.736;2022-08-21T10:23:20;96655.18;;;23.95;54.60
72118;BME280;59992;47.490;8.736;2022-08-21T10:26:29;96651.45;;;23.91;55.70
72118;BME280;59992;47.490;8.736;2022-08-21T10:29:35;96646.22;;;23.91;56.79
72118;BME280;59992;47.490;8.736;2022-08-21T10:32:40;96647.39;;;24.01;55.11
72118;BME280;59992;47.490;8.736;2022-08-21T10:35:39;96651.45;;;24.02;54.26
72118;BME280;59992;47.490;8.736;2022-08-21T10:38:49;96651.20;;;24.02;54.39
72118;BME280;59992;47.490;8.736;2022-08-21T10:41:56;96648.52;;;24.02;53.18
72118;BME280;59992;47.490;8.736;2022-08-21T10:45:02;96647.13;;;24.06;53.52
72118;BME280;59992;47.490;8.736;2022-08-21T10:48:03;96646.16;;;24.05;53.68
72118;BME280;59992;47.490;8.736;2022-08-21T10:51:02;96645.29;;;24.03;53.25
72118;BME280;59992;47.490;8.736;2022-08-21T10:54:02;96638.22;;;23.99;53.13
72118;BME280;59992;47.490;8.736;2022-08-21T10:57:01;96639.39;;;24.01;53.84
72118;BME280;59992;47.490;8.736;2022-08-21T10:59:57;96638.91;;;24.02;53.19
72118;BME280;59992;47.490;8.736;2022-08-21T11:02:55;96632.62;;;23.98;53.76
72118;BME280;59992;47.490;8.736;2022-08-21T11:05:50;96625.41;;;23.94;53.19
72118;BME280;59992;47.490;8.736;2022-08-21T11:08:44;96622.63;;;23.90;53.86
72118;BME280;59992;47.490;8.736;2022-08-21T11:11:41;96615.42;;;23.86;53.39
72118;BME280;59992;47.490;8.736;2022-08-21T11:14:41;96612.02;;;23.85;52.97
72118;BME280;59992;47.490;8.736;2022-08-21T11:17:43;96611.80;;;23.81;52.78
72118;BME280;59992;47.490;8.736;2022-08-21T11:20:40;96602.94;;;23.78;53.39
72118;BME280;59992;47.490;8.736;2022-08-21T11:23:43;96600.13;;;23.80;53.33
72118;BME280;59992;47.490;8.736;2022-08-21T11:26:37;96599.74;;;23.84;52.36
72118;BME280;59992;47.490;8.736;2022-08-21T11:29:35;96588.31;;;23.79;52.58
72118;BME280;59992;47.490;8.736;2022-08-21T11:32:51;96596.55;;;23.86;51.54
72118;BME280;59992;47.490;8.736;2022-08-21T11:35:49;96592.91;;;23.83;51.93
72118;BME280;59992;47.490;8.736;2022-08-21T11:38:44;96586.75;;;23.88;51.01
72118;BME280;59992;47.490;8.736;2022-08-21T11:41:39;96574.80;;;23.88;51.15
72118;BME280;59992;47.490;8.736;2022-08-21T11:44:41;96572.33;;;23.92;51.10
72118;BME280;59992;47.490;8.736;2022-08-21T11:47:46;96568.91;;;23.97;50.58
72118;BME280;59992;47.490;8.736;2022-08-21T11:50:41;96568.14;;;24.01;50.41
72118;BME280;59992;47.490;8.736;2022-08-21T11:53:36;96561.75;;;24.02;49.44
72118;BME280;59992;47.490;8.736;2022-08-21T11:56:33;96562.38;;;24.08;48.69
72118;BME280;59992;47.490;8.736;2022-08-21T11:59:35;96561.11;;;24.12;48.72
72118;BME280;59992;47.490;8.736;2022-08-21T12:02:33;96562.09;;;24.19;49.41
72118;BME280;59992;47.490;8.736;2022-08-21T12:05:29;96558.41;;;24.24;48.58
72118;BME280;59992;47.490;8.736;2022-08-21T12:08:31;96557.80;;;24.27;47.51
72118;BME280;59992;47.490;8.736;2022-08-21T12:11:28;96552.84;;;24.31;47.44
72118;BME280;59992;47.490;8.736;2022-08-21T12:14:19;96558.40;;;24.39;48.13
72118;BME280;59992;47.490;8.736;2022-08-21T12:17:19;96550.27;;;24.44;47.74
72118;BME280;59992;47.490;8.736;2022-08-21T12:20:25;96557.52;;;24.54;47.64
72118;BME280;59992;47.490;8.736;2022-08-21T12:23:45;96550.00;;;24.63;47.52
72118;BME280;59992;47.490;8.736;2022-08-21T12:26:47;96551.47;;;24.73;46.87
72118;BME280;59992;47.490;8.736;2022-08-21T12:29:39;96548.23;;;24.79;46.59
72118;BME280;59992;47.490;8.736;2022-08-21T12:32:45;96549.25;;;24.92;47.49
72118;BME280;59992;47.490;8.736;2022-08-21T12:35:40;96544.40;;;24.93;47.09
72118;BME280;59992;47.490;8.736;2022-08-21T12:38:57;96541.13;;;24.82;49.46
72118;BME280;59992;47.490;8.736;2022-08-21T12:41:57;96538.12;;;24.82;48.31
72118;BME280;59992;47.490;8.736;2022-08-21T12:44:53;96538.24;;;24.80;47.98
72118;BME280;59992;47.490;8.736;2022-08-21T12:47:49;96538.14;;;24.68;48.99
72118;BME280;59992;47.490;8.736;2022-08-21T12:50:48;96536.92;;;24.61;47.27
72118;BME280;59992;47.490;8.736;2022-08-21T12:53:46;96536.89;;;24.66;46.87
72118;BME280;59992;47.490;8.736;2022-08-21T12:56:37;96535.88;;;24.66;48.05
72118;BME280;59992;47.490;8.736;2022-08-21T12:59:30;96537.62;;;24.67;48.20
72118;BME280;59992;47.490;8.736;2022-08-21T13:02:25;96538.81;;;24.73;48.22
72118;BME280;59992;47.490;8.736;2022-08-21T13:05:34;96541.20;;;24.81;47.42
72118;BME280;59992;47.490;8.736;2022-08-21T13:08:28;96534.77;;;24.86;46.70
72118;BME280;59992;47.490;8.736;2022-08-21T13:11:21;96532.79;;;24.98;47.19
72118;BME280;59992;47.490;8.736;2022-08-21T13:14:17;96533.95;;;25.03;46.92
72118;BME280;59992;47.490;8.736;2022-08-21T13:17:12;96534.07;;;25.08;46.44
72118;BME280;59992;47.490;8.736;2022-08-21T13:20:18;96538.70;;;25.13;46.69
72118;BME280;59992;47.490;8.736;2022-08-21T13:23:26;96527.56;;;25.12;46.93
72118;BME280;59992;47.490;8.736;2022-08-21T13:26:20;96530.95;;;25.15;45.14
72118;BME280;59992;47.490;8.736;2022-08-21T13:29:18;96529.33;;;25.13;45.12
72118;BME280;59992;47.490;8.736;2022-08-21T13:32:20;96528.42;;;25.09;43.96
72118;BME280;59992;47.490;8.736;2022-08-21T13:35:16;96524.02;;;25.02;45.62
72118;BME280;59992;47.490;8.736;2022-08-21T13:38:09;96527.34;;;24.91;45.66
72118;BME280;59992;47.490;8.736;2022-08-21T13:41:03;96530.02;;;24.80;45.67
72118;BME280;59992;47.490;8.736;2022-08-21T13:44:00;96528.42;;;24.66;45.82
72118;BME280;59992;47.490;8.736;2022-08-21T13:46:52;96517.02;;;24.43;44.63
72118;BME280;59992;47.490;8.736;2022-08-21T13:49:46;96519.13;;;24.38;45.55
72118;BME280;59992;47.490;8.736;2022-08-21T13:52:48;96520.35;;;24.27;48.94
72118;BME280;59992;47.490;8.736;2022-08-21T13:55:42;96517.13;;;24.17;54.25
72118;BME280;59992;47.490;8.736;2022-08-21T13:58:44;96512.75;;;24.16;47.62
72118;BME280;59992;47.490;8.736;2022-08-21T14:01:38;96511.08;;;24.21;48.16
72118;BME280;59992;47.490;8.736;2022-08-21T14:04:42;96505.27;;;24.28;48.85
72118;BME280;59992;47.490;8.736;2022-08-21T14:07:36;96502.27;;;24.33;49.36
72118;BME280;59992;47.490;8.736;2022-08-21T14:10:28;96511.58;;;24.46;47.22
72118;BME280;59992;47.490;8.736;2022-08-21T14:13:31;96510.90;;;24.48;46.55
72118;BME280;59992;47.490;8.736;2022-08-21T14:16:25;96511.17;;;24.51;46.49
72118;BME280;59992;47.490;8.736;2022-08-21T14:19:25;96508.85;;;24.58;45.63
72118;BME280;59992;47.490;8.736;2022-08-21T14:22:36;96509.87;;;24.63;45.11
72118;BME280;59992;47.490;8.736;2022-08-21T14:25:37;96504.05;;;24.65;44.97
72118;BME280;59992;47.490;8.736;2022-08-21T14:28:31;96501.80;;;24.71;44.65
72118;BME280;59992;47.490;8.736;2022-08-21T14:31:27;96498.25;;;24.78;43.62
72118;BME280;59992;47.490;8.736;2022-08-21T14:34:19;96492.44;;;24.83;43.56
72118;BME280;59992;47.490;8.736;2022-08-21T14:37:20;96492.77;;;24.88;44.22
72118;BME280;59992;47.490;8.736;2022-08-21T14:40:12;96488.62;;;24.92;44.78
72118;BME280;59992;47.490;8.736;2022-08-21T14:43:03;96488.05;;;24.98;43.77
72118;BME280;59992;47.490;8.736;2022-08-21T14:45:54;96481.48;;;25.03;43.75
72118;BME280;59992;47.490;8.736;2022-08-21T14:48:46;96482.35;;;25.06;42.37
72118;BME280;59992;47.490;8.736;2022-08-21T14:51:38;96477.07;;;25.04;41.12
72118;BME280;59992;47.490;8.736;2022-08-21T14:54:31;96472.50;;;25.03;42.48
72118;BME280;59992;47.490;8.736;2022-08-21T14:57:23;96469.84;;;25.01;43.57
72118;BME280;59992;47.490;8.736;2022-08-21T15:00:19;96465.04;;;24.94;45.71
72118;BME280;59992;47.490;8.736;2022-08-21T15:03:12;96461.06;;;24.85;42.30
72118;BME280;59992;47.490;8.736;2022-08-21T15:06:04;96457.98;;;24.81;45.23
72118;BME280;59992;47.490;8.736;2022-08-21T15:08:55;96451.77;;;24.76;46.39
72118;BME280;59992;47.490;8.736;2022-08-21T15:11:46;96447.04;;;24.71;47.57
72118;BME280;59992;47.490;8.736;2022-08-21T15:14:39;96449.06;;;24.65;47.89
72118;BME280;59992;47.490;8.736;2022-08-21T15:17:30;96449.98;;;24.64;46.12
72118;BME280;59992;47.490;8.736;2022-08-21T15:20:21;96451.10;;;24.66;45.62
72118;BME280;59992;47.490;8.736;2022-08-21T15:23:11;96454.17;;;24.71;44.77